Time;durP1;ratioP1;P1;durP2;ratioP2;P2;SDS_P1;SDS_P2;PMS_P1;PMS_P2;Temp;Humidity;BMP_temperature;BMP_pressure;BME280_temperature;BME280_humidity;BME280_pressure;Samples;Min_cycle;Max_cycle;Signal;HPM_P1;HPM_P2
2020/12/26 00:00:51;;;;;;;2.50;2.20;;;;;;;2.31;100.00;98089.00;5015576;28;20021;-85
2020/12/26 00:03:17;;;;;;;3.17;2.30;;;;;;;2.24;100.00;98077.50;5031296;28;20034;-85
2020/12/26 00:05:42;;;;;;;;;;;;;;;2.36;100.00;98084.50;5024574;28;20041;-83
2020/12/26 00:08:07;;;;;;;2.65;2.45;;;;;;;2.45;100.00;98063.34;5029035;28;19952;-84
2020/12/26 00:10:32;;;;;;;;;;;;;;;2.30;100.00;98065.75;5026731;28;20030;-82
2020/12/26 00:12:58;;;;;;;1.65;1.52;;;;;;;2.17;100.00;98066.84;5034305;28;19928;-85
2020/12/26 00:15:23;;;;;;;;;;;;;;;2.12;100.00;98062.19;5052757;28;20465;-86
2020/12/26 00:17:49;;;;;;;4.13;2.10;;;;;;;2.21;100.00;98056.41;5054787;28;19919;-83
2020/12/26 00:20:14;;;;;;;;;;;;;;;2.29;100.00;98064.94;5055374;28;20021;-83
2020/12/26 00:22:40;;;;;;;2.22;1.75;;;;;;;2.17;100.00;98062.28;5040126;28;20313;-85
2020/12/26 00:25:05;;;;;;;2.13;1.73;;;;;;;2.22;100.00;98058.06;5058679;28;20029;-85
2020/12/26 00:27:31;;;;;;;;;;;;;;;2.31;100.00;98062.84;5059216;28;20021;-86
2020/12/26 00:29:56;;;;;;;2.50;1.80;;;;;;;2.22;100.00;98053.50;5026753;28;19948;-84
2020/12/26 00:32:22;;;;;;;2.33;1.63;;;;;;;2.34;100.00;98061.53;5033511;28;20108;-85
2020/12/26 00:34:49;;;;;;;;;;;;;;;2.40;100.00;98077.59;5032676;28;20017;-83
2020/12/26 00:37:18;;;;;;;2.28;1.85;;;;;;;2.37;100.00;98063.75;5031940;28;19917;-87
2020/12/26 00:39:43;;;;;;;1.92;1.67;;;;;;;2.36;100.00;98070.19;5032547;28;20045;-84
2020/12/26 00:42:09;;;;;;;3.20;2.10;;;;;;;2.16;100.00;98043.66;5031707;28;20030;-84
2020/12/26 00:44:34;;;;;;;2.38;2.20;;;;;;;2.23;100.00;98055.09;5032296;28;20455;-86
2020/12/26 00:47:00;;;;;;;2.67;2.25;;;;;;;2.35;100.00;98052.38;5014163;28;20029;-84
2020/12/26 00:49:25;;;;;;;2.97;2.67;;;;;;;2.34;100.00;98066.94;5031922;28;20068;-83
2020/12/26 00:51:50;;;;;;;2.75;2.17;;;;;;;2.37;100.00;98066.44;5014758;28;20056;-86
2020/12/26 00:54:16;;;;;;;4.93;2.40;;;;;;;2.33;100.00;98054.50;5014763;28;20026;-84
2020/12/26 00:56:41;;;;;;;;;;;;;;;2.35;100.00;98068.59;5033052;28;20482;-85
2020/12/26 00:59:07;;;;;;;4.20;2.38;;;;;;;2.40;100.00;98066.78;5015531;28;19913;-86
2020/12/26 01:01:32;;;;;;;;;;;;;;;2.23;100.00;98067.78;5016988;28;20025;-85
2020/12/26 01:03:57;;;;;;;3.78;2.47;;;;;;;2.33;100.00;98065.28;5033192;28;19932;-86
2020/12/26 01:06:23;;;;;;;2.75;1.98;;;;;;;2.31;100.00;98062.84;5015063;28;20036;-86
2020/12/26 01:08:49;;;;;;;3.20;2.35;;;;;;;2.34;100.00;98061.53;5032779;28;20029;-86
2020/12/26 01:11:14;;;;;;;4.78;2.65;;;;;;;2.17;100.00;98048.78;5032576;28;20052;-85
2020/12/26 01:13:39;;;;;;;2.28;2.05;;;;;;;2.10;100.00;98056.19;5032434;28;20045;-84
2020/12/26 01:16:05;;;;;;;2.35;2.00;;;;;;;2.15;100.00;98064.41;5032446;28;20397;-84
2020/12/26 01:18:30;;;;;;;3.63;2.42;;;;;;;2.21;100.00;98061.81;5032375;28;20040;-82
2020/12/26 01:20:57;;;;;;;2.75;1.95;;;;;;;2.32;100.00;98067.16;5034538;28;20561;-86
2020/12/26 01:23:23;;;;;;;7.32;2.20;;;;;;;2.35;100.00;98058.56;4999173;28;20056;-84
2020/12/26 01:25:52;;;;;;;3.33;2.55;;;;;;;2.18;100.00;98044.22;5032660;28;20005;-86
2020/12/26 01:28:20;;;;;;;3.15;2.63;;;;;;;2.24;100.00;98056.75;5032167;28;20124;-87
2020/12/26 01:30:46;;;;;;;3.63;2.50;;;;;;;2.33;100.00;98062.59;5034870;28;20057;-83
2020/12/26 01:33:11;;;;;;;3.60;2.65;;;;;;;2.37;100.00;98063.75;5023666;28;20048;-86
2020/12/26 01:35:36;;;;;;;3.55;2.45;;;;;;;2.17;100.00;98066.84;5026529;28;20087;-86
2020/12/26 01:38:02;;;;;;;;;;;;;;;2.20;100.00;98073.66;5026216;28;20593;-84
2020/12/26 01:40:30;;;;;;;3.28;2.63;;;;;;;2.51;100.00;98075.88;5023364;28;19917;-86
2020/12/26 01:42:57;;;;;;;3.83;2.78;;;;;;;2.33;100.00;98065.28;5028810;28;20029;-85
2020/12/26 01:45:22;;;;;;;2.95;2.20;;;;;;;2.30;100.00;98066.59;5046922;28;20060;-85
2020/12/26 01:47:48;;;;;;;3.13;2.80;;;;;;;2.15;100.00;98052.78;5041804;28;20029;-86
2020/12/26 01:50:13;;;;;;;;;;;;;;;2.25;100.00;98068.38;5044307;28;20053;-86
2020/12/26 01:52:39;;;;;;;4.47;2.08;;;;;;;2.30;100.00;98065.75;5025032;28;19924;-85
2020/12/26 01:55:05;;;;;;;2.00;1.80;;;;;;;2.22;100.00;98048.09;5034577;28;20497;-85
2020/12/26 01:57:35;;;;;;;3.40;2.38;;;;;;;2.16;100.00;98057.16;5018853;28;20025;-84
2020/12/26 02:00:04;;;;;;;2.83;2.10;;;;;;;2.14;100.00;98051.97;5017262;28;20559;-84
2020/12/26 02:02:29;;;;;;;2.80;2.30;;;;;;;2.05;100.00;98045.31;5018568;28;20037;-86
2020/12/26 02:04:54;;;;;;;3.53;2.55;;;;;;;2.06;100.00;98033.47;5017929;28;20040;-84
2020/12/26 02:07:20;;;;;;;3.17;2.67;;;;;;;2.05;100.00;98053.41;5035327;28;20029;-85
2020/12/26 02:09:46;;;;;;;4.07;2.58;;;;;;;1.90;100.00;98036.91;5018313;28;20793;-86
2020/12/26 02:12:12;;;;;;;2.97;2.38;;;;;;;1.88;100.00;98035.53;5018424;28;20796;-86
2020/12/26 02:14:47;;;;;;;3.65;3.15;;;;;;;1.75;100.00;98012.34;5036036;28;20042;-87
2020/12/26 02:17:13;;;;;;;4.57;3.08;;;;;;;1.82;100.00;98014.88;5018483;28;20036;-87
2020/12/26 02:19:38;;;;;;;3.90;2.83;;;;;;;1.99;100.00;98032.78;5034596;28;20033;-86
2020/12/26 02:22:03;;;;;;;;;;;;;;;1.93;100.00;98032.91;5036448;28;20029;-84
2020/12/26 02:24:29;;;;;;;4.03;2.72;;;;;;;1.95;100.00;98041.56;5035500;28;19917;-86
2020/12/26 02:26:54;;;;;;;4.43;3.30;;;;;;;1.87;100.00;98029.31;5034314;28;20056;-84
2020/12/26 02:29:20;;;;;;;3.40;3.10;;;;;;;1.73;100.00;98038.69;5034613;28;20365;-87
2020/12/26 02:31:45;;;;;;;3.95;2.95;;;;;;;1.75;100.00;98036.59;5017612;28;20029;-84
2020/12/26 02:34:10;;;;;;;;;;;;;;;1.80;100.00;98034.00;5035920;28;20021;-86
2020/12/26 02:36:36;;;;;;;4.45;3.53;;;;;;;1.81;100.00;98034.81;5034665;28;19913;-85
2020/12/26 02:39:08;;;;;;;3.72;2.78;;;;;;;1.80;100.00;98042.09;5034390;28;20032;-87
2020/12/26 02:41:33;;;;;;;3.30;2.47;;;;;;;1.86;100.00;98043.00;5035313;28;20025;-85
2020/12/26 02:43:59;;;;;;;6.22;3.03;;;;;;;1.85;100.00;98042.19;5035066;28;20044;-85
2020/12/26 02:46:24;;;;;;;4.22;2.88;;;;;;;1.84;100.00;98047.81;5034656;28;20022;-84
2020/12/26 02:48:50;;;;;;;4.80;3.67;;;;;;;1.77;100.00;98045.25;5035497;28;20467;-86
2020/12/26 02:51:15;;;;;;;4.18;2.80;;;;;;;1.64;100.00;98045.50;5035090;28;20026;-84
2020/12/26 02:53:46;;;;;;;4.00;3.22;;;;;;;1.63;100.00;98033.06;5035010;28;20041;-88
2020/12/26 02:56:11;;;;;;;3.90;2.42;;;;;;;1.70;100.00;98036.47;5017147;28;20483;-85
2020/12/26 02:58:39;;;;;;;4.95;3.20;;;;;;;1.59;100.00;98032.75;5034851;28;20088;-86
2020/12/26 03:01:04;;;;;;;3.65;3.20;;;;;;;1.61;100.00;98032.50;5017334;28;20032;-84
2020/12/26 03:03:30;;;;;;;4.38;3.65;;;;;;;1.55;100.00;98041.53;5017630;28;20163;-86
2020/12/26 03:05:55;;;;;;;4.43;2.80;;;;;;;1.58;100.00;98047.28;5018161;28;20029;-86
2020/12/26 03:08:21;;;;;;;3.92;3.42;;;;;;;1.48;100.00;98030.03;5034558;28;20026;-86
2020/12/26 03:10:46;;;;;;;3.10;2.70;;;;;;;1.52;100.00;98032.06;5036104;28;20025;-88
2020/12/26 03:13:11;;;;;;;6.05;3.63;;;;;;;1.64;100.00;98037.41;5018903;28;20026;-87
2020/12/26 03:15:37;;;;;;;3.70;2.72;;;;;;;1.62;100.00;98026.06;5033935;28;20047;-85
2020/12/26 03:18:02;;;;;;;;;;;;;;;1.55;100.00;98028.88;5036174;28;20026;-85
2020/12/26 03:20:27;;;;;;;5.13;3.08;;;;;;;1.63;100.00;98043.06;5035733;28;20377;-85
2020/12/26 03:22:53;;;;;;;6.55;3.05;;;;;;;1.68;100.00;98048.56;5017146;28;20032;-84
2020/12/26 03:25:19;;;;;;;5.18;3.20;;;;;;;1.55;100.00;98019.97;5034531;28;20067;-86
2020/12/26 03:27:45;;;;;;;5.47;3.28;;;;;;;1.68;100.00;98025.13;5017123;28;20021;-85
2020/12/26 03:30:10;;;;;;;5.63;3.45;;;;;;;1.70;100.00;98043.72;5016757;28;20056;-86
2020/12/26 03:32:36;;;;;;;;;;;;;;;1.65;100.00;98047.16;5034798;28;20036;-85
2020/12/26 03:35:01;;;;;;;5.45;3.42;;;;;;;1.62;100.00;98039.53;5016615;28;19967;-87
2020/12/26 03:37:27;;;;;;;4.80;3.28;;;;;;;1.55;100.00;98041.53;5017883;28;20083;-87
2020/12/26 03:39:52;;;;;;;5.25;3.35;;;;;;;1.37;100.00;98050.56;5035815;28;20026;-85
2020/12/26 03:42:20;;;;;;;5.65;3.83;;;;;;;1.43;100.00;98062.28;5034786;28;20025;-87
2020/12/26 03:44:46;;;;;;;6.47;3.55;;;;;;;1.58;100.00;98070.72;5017613;28;20053;-88
2020/12/26 03:47:12;;;;;;;5.82;4.53;;;;;;;1.42;100.00;98066.00;5033817;28;20120;-86
2020/12/26 03:49:40;;;;;;;6.57;4.15;;;;;;;1.24;100.00;98063.44;5017755;28;20075;-86
2020/12/26 03:52:06;;;;;;;5.53;3.50;;;;;;;1.38;100.00;98070.25;5034728;28;20063;-85
2020/12/26 03:54:31;;;;;;;5.45;3.42;;;;;;;1.52;100.00;98080.56;5016871;28;20053;-85
2020/12/26 03:56:56;;;;;;;;;;;;;;;1.44;100.00;98077.41;5016572;28;20483;-84
2020/12/26 03:59:22;;;;;;;6.03;3.75;;;;;;;1.50;100.00;98081.84;5015350;28;20005;-87
2020/12/26 04:01:48;;;;;;;4.30;3.47;;;;;;;1.60;100.00;98082.88;5032517;28;20114;-84
2020/12/26 04:04:16;;;;;;;4.88;3.60;;;;;;;1.62;100.00;98071.88;5016385;28;20445;-84
2020/12/26 04:06:42;;;;;;;5.97;3.72;;;;;;;1.63;100.00;98070.00;5032826;28;20394;-84
2020/12/26 04:09:09;;;;;;;6.38;3.88;;;;;;;1.67;100.00;98082.78;5032969;28;20037;-85
2020/12/26 04:11:34;;;;;;;6.55;3.83;;;;;;;1.73;100.00;98071.03;5033455;28;20022;-87
2020/12/26 04:14:00;;;;;;;4.65;3.30;;;;;;;1.87;100.00;98074.31;5016583;28;20048;-86
2020/12/26 04:16:25;;;;;;;;;;;;;;;1.75;100.00;98090.50;5033475;28;20029;-85
2020/12/26 04:18:51;;;;;;;4.03;3.15;;;;;;;1.60;100.00;98074.81;5015970;28;19913;-85
2020/12/26 04:21:21;;;;;;;4.75;3.95;;;;;;;1.76;100.00;98091.31;5015746;28;20033;-87
2020/12/26 04:23:46;;;;;;;6.20;3.42;;;;;;;1.73;100.00;98099.88;5034250;28;20028;-84
2020/12/26 04:26:12;;;;;;;4.53;2.92;;;;;;;1.75;100.00;98100.47;5034963;28;20021;-86
2020/12/26 04:28:37;;;;;;;4.07;3.00;;;;;;;1.66;100.00;98110.78;5019528;28;20089;-87
2020/12/26 04:31:03;;;;;;;4.70;3.47;;;;;;;1.59;100.00;98102.00;5037308;28;20478;-87
2020/12/26 04:33:28;;;;;;;4.47;3.22;;;;;;;1.58;100.00;98100.34;5037014;28;21674;-87
2020/12/26 04:35:53;;;;;;;;;;;;;;;1.57;100.00;98109.47;5032897;28;20021;-87
2020/12/26 04:38:19;;;;;;;3.40;3.10;;;;;;;1.53;100.00;98105.63;5033744;28;19996;-86
2020/12/26 04:40:45;;;;;;;;;;;;;;;1.53;100.00;98114.56;5034753;28;20029;-85
2020/12/26 04:43:10;;;;;;;4.57;3.08;;;;;;;1.61;100.00;98121.44;5016060;28;19924;-85
2020/12/26 04:45:36;;;;;;;4.55;3.00;;;;;;;1.52;100.00;98110.19;5033525;28;20022;-86
2020/12/26 04:48:04;;;;;;;5.00;3.90;;;;;;;1.60;100.00;98117.94;5033089;28;20064;-85
2020/12/26 04:50:32;;;;;;;9.55;3.95;;;;;;;1.59;100.00;98118.19;5032356;28;20121;-86
2020/12/26 04:53:03;;;;;;;4.95;3.50;;;;;;;1.73;100.00;98130.34;5033269;28;20099;-85
2020/12/26 04:55:31;;;;;;;9.20;4.05;;;;;;;1.68;100.00;98135.63;5033200;28;20481;-86
2020/12/26 04:58:10;;;;;;;3.47;2.88;;;;;;;1.67;100.00;98125.91;5015497;28;20036;-86
2020/12/26 05:00:37;;;;;;;3.45;2.83;;;;;;;1.77;100.00;98125.31;5032335;28;20033;-85
2020/12/26 05:03:11;;;;;;;5.55;3.50;;;;;;;1.72;100.00;98134.13;5033489;28;20071;-86
2020/12/26 05:05:39;;;;;;;4.80;4.00;;;;;;;1.77;100.00;98142.31;5033586;28;20033;-87
2020/12/26 05:08:05;;;;;;;5.35;3.42;;;;;;;1.81;100.00;98135.41;5035447;28;20053;-85
2020/12/26 05:10:32;;;;;;;3.53;3.00;;;;;;;1.85;100.00;98143.84;5035196;28;20014;-87
2020/12/26 05:12:58;;;;;;;5.78;3.20;;;;;;;1.89;100.00;98150.41;5018046;28;20029;-85
2020/12/26 05:15:23;;;;;;;5.05;3.03;;;;;;;1.98;100.00;98160.59;5037215;28;20049;-86
2020/12/26 05:17:49;;;;;;;4.05;2.90;;;;;;;1.95;100.00;98155.66;5036542;28;20136;-86
2020/12/26 05:20:14;;;;;;;;;;;;;;;2.15;100.00;98163.41;5039864;28;20038;-87
2020/12/26 05:22:40;;;;;;;5.50;2.97;;;;;;;1.98;100.00;98148.97;5028254;28;19913;-86
2020/12/26 05:25:09;;;;;;;5.70;3.30;;;;;;;1.92;100.00;98164.22;5045407;28;20017;-86
2020/12/26 05:27:35;;;;;;;3.60;2.33;;;;;;;2.06;100.00;98168.34;5033307;28;20060;-86
2020/12/26 05:30:02;;;;;;;4.60;3.65;;;;;;;2.11;100.00;98171.16;5032179;28;20029;-85
2020/12/26 05:32:27;;;;;;;3.58;2.45;;;;;;;2.00;100.00;98171.16;5033288;28;20045;-84
2020/12/26 05:35:01;;;;;;;3.85;2.88;;;;;;;1.93;99.22;98179.38;5032322;28;20065;-85
2020/12/26 05:37:29;;;;;;;2.45;2.28;;;;;;;2.11;99.77;98179.25;5014220;28;20029;-86
2020/12/26 05:39:58;;;;;;;6.68;3.03;;;;;;;2.22;100.00;98192.97;5031526;28;20033;-87
2020/12/26 05:42:23;;;;;;;5.18;2.67;;;;;;;2.17;100.00;98191.78;5031634;28;20029;-87
2020/12/26 05:44:49;;;;;;;8.38;4.00;;;;;;;2.13;100.00;98177.13;5015758;28;20029;-85
2020/12/26 05:47:14;;;;;;;;;;;;;;;2.20;100.00;98200.44;5016075;28;20121;-85
2020/12/26 05:49:41;;;;;;;2.97;2.67;;;;;;;2.12;100.00;98205.16;5031994;28;19917;-85
2020/12/26 05:52:08;;;;;;;7.82;3.65;;;;;;;2.12;100.00;98204.34;5014496;28;20022;-87
2020/12/26 05:54:34;;;;;;;3.88;2.47;;;;;;;2.17;100.00;98202.56;5030639;28;20044;-87
2020/12/26 05:57:14;;;;;;;3.80;3.08;;;;;;;2.09;100.00;98216.44;5030747;28;20108;-85
2020/12/26 05:59:51;;;;;;;4.10;3.40;;;;;;;1.97;100.00;98218.28;5031977;28;20037;-86
2020/12/26 06:02:27;;;;;;;5.05;3.75;;;;;;;1.98;100.00;98225.31;5014512;28;20049;-86
2020/12/26 06:05:05;;;;;;;4.07;3.30;;;;;;;1.93;100.00;98227.09;5032024;28;20025;-86
2020/12/26 06:07:36;;;;;;;4.07;2.90;;;;;;;2.14;100.00;98234.59;5031918;28;20064;-85
2020/12/26 06:10:08;;;;;;;3.80;2.35;;;;;;;2.16;100.00;98240.59;5031340;28;20461;-86
2020/12/26 06:12:35;;;;;;;4.53;2.75;;;;;;;2.17;100.00;98237.66;5030791;28;20021;-86
2020/12/26 06:15:01;;;;;;;4.43;2.72;;;;;;;2.04;100.00;98251.34;5009247;28;20046;-88
2020/12/26 06:17:28;;;;;;;5.43;3.67;;;;;;;1.96;100.00;98261.69;4996084;28;20072;-85
2020/12/26 06:19:56;;;;;;;6.07;3.40;;;;;;;2.03;100.00;98259.69;4995041;28;20108;-84
2020/12/26 06:22:22;;;;;;;4.57;3.25;;;;;;;2.06;100.00;98270.84;4997910;28;20072;-85
2020/12/26 06:24:47;;;;;;;5.32;3.50;;;;;;;2.13;100.00;98266.13;5014398;28;20018;-87
2020/12/26 06:27:14;;;;;;;7.13;3.85;;;;;;;2.10;100.00;98277.41;5015129;28;20026;-85
2020/12/26 06:29:43;;;;;;;4.78;3.22;;;;;;;1.92;99.21;98280.19;5015073;28;20049;-86
2020/12/26 06:32:08;;;;;;;3.25;2.65;;;;;;;1.99;98.01;98285.47;5015396;28;20536;-87
2020/12/26 06:34:36;;;;;;;2.88;2.53;;;;;;;2.07;98.17;98277.88;5016329;28;20037;-87
2020/12/26 06:37:02;;;;;;;3.67;2.42;;;;;;;2.07;96.50;98293.22;5018310;28;20022;-86
2020/12/26 06:39:33;;;;;;;3.50;2.40;;;;;;;2.00;93.59;98301.44;4999444;28;20021;-86
2020/12/26 06:42:23;;;;;;;3.22;2.72;;;;;;;2.08;94.13;98300.28;5020580;28;20041;-83
2020/12/26 06:44:49;;;;;;;3.15;2.55;;;;;;;2.06;93.66;98318.56;4996737;28;20398;-82
2020/12/26 06:47:37;;;;;;;4.18;2.63;;;;;;;2.03;93.65;98317.16;5014412;28;20022;-84
2020/12/26 06:50:22;;;;;;;5.80;2.58;;;;;;;2.06;89.77;98318.56;5014428;28;20061;-87
2020/12/26 06:52:48;;;;;;;2.22;2.00;;;;;;;2.02;90.73;98326.31;5012980;28;20060;-85
2020/12/26 06:55:41;;;;;;;2.17;2.05;;;;;;;1.95;91.81;98333.66;4996651;28;20061;-84
2020/12/26 06:58:30;;;;;;;3.03;2.25;;;;;;;1.98;90.92;98337.78;5014344;28;20084;-83
2020/12/26 07:00:55;;;;;;;4.53;1.88;;;;;;;1.95;88.70;98330.97;5003217;28;20038;-84
2020/12/26 07:03:22;;;;;;;5.22;2.13;;;;;;;2.00;88.82;98352.69;5017442;28;20049;-85
2020/12/26 07:05:49;;;;;;;4.13;2.20;;;;;;;1.99;88.48;98351.03;5032190;28;20057;-87
2020/12/26 07:08:29;;;;;;;2.97;2.60;;;;;;;2.02;88.33;98363.25;5022594;28;20028;-84
2020/12/26 07:11:03;;;;;;;3.60;2.67;;;;;;;2.03;87.14;98363.03;5009208;28;20018;-87
2020/12/26 07:13:48;;;;;;;13.75;5.40;;;;;;;2.02;87.52;98361.38;5019278;28;20033;-82
2020/12/26 07:16:52;;;;;;;5.30;3.63;;;;;;;2.04;87.63;98370.03;5009319;28;20462;-84
2020/12/26 07:19:23;;;;;;;2.58;2.38;;;;;;;2.10;86.76;98374.50;4933487;29;20047;-85
2020/12/26 07:21:49;;;;;;;4.63;2.53;;;;;;;2.10;85.89;98377.22;4934132;29;20039;-84
2020/12/26 07:24:40;;;;;;;3.13;2.63;;;;;;;2.08;86.17;98383.91;4968058;28;20052;-84
2020/12/26 07:27:31;;;;;;;2.05;1.83;;;;;;;1.99;86.73;98378.00;5017376;28;20046;-84
2020/12/26 07:30:17;;;;;;;2.45;1.92;;;;;;;1.99;85.58;98378.00;5024000;28;20022;-85
2020/12/26 07:32:51;;;;;;;2.33;1.83;;;;;;;2.05;85.70;98378.97;5022471;28;20057;-83
2020/12/26 07:35:29;;;;;;;2.08;1.52;;;;;;;2.05;85.61;98369.00;5018299;28;20060;-85
2020/12/26 07:37:57;;;;;;;3.05;1.75;;;;;;;2.20;85.11;98383.91;5006807;28;20052;-85
2020/12/26 07:40:28;;;;;;;1.85;1.60;;;;;;;2.25;85.34;98384.06;5021338;28;20113;-84
2020/12/26 07:42:54;;;;;;;1.45;1.35;;;;;;;2.17;84.54;98386.03;5030392;28;20048;-83
2020/12/26 07:45:22;;;;;;;1.55;1.35;;;;;;;2.23;84.51;98383.44;5015022;28;20025;-85
2020/12/26 07:47:56;;;;;;;1.67;1.58;;;;;;;2.28;83.45;98389.81;5007714;28;20389;-86
2020/12/26 07:50:24;;;;;;;5.70;1.50;;;;;;;2.30;83.23;98392.28;5027262;28;20038;-84
2020/12/26 07:52:52;;;;;;;2.78;1.88;;;;;;;2.17;82.75;98385.22;5011980;28;20022;-84
2020/12/26 07:55:18;;;;;;;2.05;1.60;;;;;;;2.29;83.50;98393.34;5014142;28;20101;-87
2020/12/26 07:57:44;;;;;;;1.27;1.17;;;;;;;2.32;82.72;98395.59;5028677;28;20442;-86
2020/12/26 08:00:27;;;;;;;1.95;1.85;;;;;;;2.34;82.25;98401.56;5013617;28;20080;-86
2020/12/26 08:02:57;;;;;;;1.70;1.40;;;;;;;2.17;81.30;98399.53;5009442;28;20053;-83
2020/12/26 08:05:26;;;;;;;1.70;1.52;;;;;;;2.25;81.43;98401.09;5026516;28;20030;-83
2020/12/26 08:07:51;;;;;;;1.88;1.65;;;;;;;2.21;80.29;98399.88;5017440;28;20068;-84
2020/12/26 08:10:18;;;;;;;1.48;1.15;;;;;;;2.31;80.36;98402.84;5012818;28;20540;-85
2020/12/26 08:12:54;;;;;;;1.38;1.25;;;;;;;2.43;80.11;98389.38;5020331;28;20032;-84
2020/12/26 08:15:30;;;;;;;2.55;1.83;;;;;;;2.46;79.65;98397.00;5016613;28;20091;-83
2020/12/26 08:18:03;;;;;;;1.88;1.20;;;;;;;2.41;78.50;98381.50;5018769;28;20030;-84
2020/12/26 08:20:30;;;;;;;1.88;1.77;;;;;;;2.59;78.50;98399.50;5004299;28;20126;-83
2020/12/26 08:22:56;;;;;;;2.92;2.30;;;;;;;2.66;79.34;98405.59;5013689;28;20053;-82
2020/12/26 08:25:26;;;;;;;2.10;1.92;;;;;;;2.90;78.28;98407.25;5016785;28;20467;-82
2020/12/26 08:27:52;;;;;;;2.15;1.60;;;;;;;2.85;76.40;98415.22;5023061;28;20561;-83
2020/12/26 08:30:40;;;;;;;4.80;2.67;;;;;;;2.66;75.93;98413.72;5031259;28;20052;-82
2020/12/26 08:33:30;;;;;;;1.67;1.33;;;;;;;2.77;77.70;98431.78;5008975;28;20513;-86
2020/12/26 08:36:02;;;;;;;1.30;1.20;;;;;;;2.85;77.33;98449.53;5019307;28;20166;-86
2020/12/26 08:38:34;;;;;;;1.73;1.17;;;;;;;2.73;75.57;98444.09;5027207;28;20057;-84
2020/12/26 08:41:02;;;;;;;5.50;2.40;;;;;;;2.60;76.47;98461.34;5024778;28;20030;-85
2020/12/26 08:43:29;;;;;;;5.32;3.53;;;;;;;2.57;75.27;98452.88;5028130;28;20032;-85
2020/12/26 08:45:54;;;;;;;2.45;1.70;;;;;;;2.52;75.54;98459.00;5025497;28;20029;-85
2020/12/26 08:48:24;;;;;;;5.15;1.73;;;;;;;2.51;76.39;98461.91;5026400;28;20374;-85
2020/12/26 08:50:57;;;;;;;2.60;1.98;;;;;;;2.63;78.27;98479.78;5016534;28;20025;-86
2020/12/26 08:53:23;;;;;;;6.72;2.25;;;;;;;2.72;78.22;98474.88;5024769;28;20064;-85
2020/12/26 08:55:56;;;;;;;3.10;2.38;;;;;;;2.84;76.95;98478.44;5011642;28;20072;-82
2020/12/26 08:58:29;;;;;;;2.30;1.80;;;;;;;2.84;76.49;98493.81;5008544;28;20022;-85
2020/12/26 09:01:01;;;;;;;1.52;1.33;;;;;;;2.87;76.30;98504.97;5029899;28;20034;-85
2020/12/26 09:03:29;;;;;;;1.40;1.23;;;;;;;2.98;75.87;98506.03;5018869;28;20026;-84
2020/12/26 09:05:58;;;;;;;2.28;1.55;;;;;;;2.92;74.34;98502.38;4997955;28;20030;-84
2020/12/26 09:08:35;;;;;;;2.70;1.80;;;;;;;2.79;74.53;98508.00;5024305;28;20478;-83
2020/12/26 09:11:06;;;;;;;;;;;;;;;2.85;74.07;98511.66;5026779;28;20029;-85
2020/12/26 09:13:39;;;;;;;3.28;1.95;;;;;;;2.88;74.88;98512.00;5031441;28;19925;-84
2020/12/26 09:16:10;;;;;;;1.75;1.52;;;;;;;2.79;74.97;98505.28;5019761;28;20034;-84
2020/12/26 09:18:38;;;;;;;1.38;1.33;;;;;;;2.88;75.51;98512.00;5026543;28;20017;-87
2020/12/26 09:21:04;;;;;;;1.33;1.23;;;;;;;2.79;74.87;98513.38;5025454;28;20490;-86
2020/12/26 09:23:38;;;;;;;1.83;1.73;;;;;;;2.89;72.49;98518.22;5004494;28;20026;-83
2020/12/26 09:26:14;;;;;;;1.55;1.42;;;;;;;3.07;72.30;98526.28;5013051;28;20015;-85
2020/12/26 09:29:01;;;;;;;2.00;1.90;;;;;;;3.25;71.72;98520.75;5016621;28;20068;-85
2020/12/26 09:31:29;;;;;;;2.63;1.88;;;;;;;3.48;70.83;98523.44;5011996;28;20034;-84
2020/12/26 09:33:57;;;;;;;1.60;1.50;;;;;;;3.60;70.12;98524.25;5018951;28;20025;-83
2020/12/26 09:36:24;;;;;;;2.88;1.42;;;;;;;3.46;69.36;98520.16;5023137;28;20482;-79
2020/12/26 09:38:51;;;;;;;1.90;1.65;;;;;;;3.91;67.63;98528.47;5026540;28;20479;-82
2020/12/26 09:41:22;;;;;;;1.27;1.17;;;;;;;4.11;66.96;98517.22;5014792;28;20053;-85
2020/12/26 09:43:50;;;;;;;1.30;1.20;;;;;;;4.63;65.30;98531.53;5003357;28;20030;-81
2020/12/26 09:46:16;;;;;;;1.98;1.40;;;;;;;5.12;64.00;98519.09;5026909;28;20026;-83
2020/12/26 09:48:45;;;;;;;1.85;1.30;;;;;;;5.28;61.75;98519.09;5023993;28;20025;-81
2020/12/26 09:51:19;;;;;;;1.58;1.33;;;;;;;5.96;60.69;98515.19;5025819;28;20072;-81
2020/12/26 09:53:45;;;;;;;1.33;1.10;;;;;;;5.62;61.57;98506.31;5021204;28;20034;-84
2020/12/26 09:56:11;;;;;;;1.45;1.23;;;;;;;4.81;62.93;98505.03;5034295;28;20080;-85
2020/12/26 09:58:46;;;;;;;2.95;1.42;;;;;;;3.84;66.32;98489.88;5027847;28;20030;-85
2020/12/26 10:01:13;;;;;;;1.45;1.35;;;;;;;3.97;65.73;98508.56;5001546;28;20053;-83
2020/12/26 10:03:39;;;;;;;3.35;2.08;;;;;;;3.80;66.95;98518.47;5036611;28;20095;-86
2020/12/26 10:06:11;;;;;;;2.42;1.50;;;;;;;3.74;68.78;98501.31;5016676;28;20509;-85
2020/12/26 10:08:37;;;;;;;3.72;2.72;;;;;;;3.54;67.10;98510.88;5034690;28;20021;-87
2020/12/26 10:11:03;;;;;;;8.65;3.33;;;;;;;3.42;67.27;98512.75;5036334;28;20040;-83
2020/12/26 10:13:28;;;;;;;;;;;;;;;3.51;67.84;98524.88;5035474;28;20020;-83
2020/12/26 10:15:53;;;;;;;;;;;;;;;3.42;66.15;98515.44;5036671;28;19958;-85
2020/12/26 10:18:19;;;;;;;;;;;;;;;3.66;66.46;98520.63;5018812;28;19920;-85
2020/12/26 10:20:44;;;;;;;;;;;;;;;3.78;66.34;98507.06;5007591;28;19913;-86
2020/12/26 10:23:09;;;;;;;;;;;;;;;4.06;66.26;98509.84;5026084;28;20371;-82
2020/12/26 10:25:35;;;;;;;;;;;;;;;4.39;63.69;98505.56;5015840;28;19963;-86
2020/12/26 10:28:00;;;;;;;;;;;;;;;4.84;61.97;98514.56;5040124;28;19913;-87
2020/12/26 10:30:25;;;;;;;;;;;;;;;5.17;62.28;98517.25;5020747;28;19936;-86
2020/12/26 10:32:51;;;;;;;;;;;;;;;5.51;59.31;98517.25;5039839;28;19905;-88
2020/12/26 10:35:16;;;;;;;;;;;;;;;5.54;59.16;98508.63;5039589;28;19920;-84
2020/12/26 10:37:41;;;;;;;;;;;;;;;5.17;60.01;98514.56;5018227;28;19913;-85
2020/12/26 10:40:07;;;;;;;;;;;;;;;4.83;59.56;98504.78;5010790;28;20016;-87
2020/12/26 10:42:32;;;;;;;;;;;;;;;4.51;61.27;98500.97;5017365;28;19914;-84
2020/12/26 10:44:58;;;;;;;;;;;;;;;5.31;59.14;98491.47;5014655;28;19905;-87
2020/12/26 10:47:23;;;;;;;;;;;;;;;5.37;59.16;98495.06;5032734;28;20383;-86
2020/12/26 10:49:48;;;;;;;;;;;;;;;5.09;59.93;98498.72;5014320;28;19918;-85
2020/12/26 10:52:14;;;;;;;;;;;;;;;5.00;60.36;98489.34;5016555;28;19913;-86
2020/12/26 10:54:39;;;;;;;;;;;;;;;4.82;60.99;98484.97;5041056;28;19913;-87
2020/12/26 10:57:04;;;;;;;;;;;;;;;4.64;61.31;98485.19;5043525;28;19921;-87
2020/12/26 10:59:29;;;;;;;;;;;;;;;4.50;61.41;98489.31;5023969;28;19913;-87
2020/12/26 11:01:55;;;;;;;;;;;;;;;4.29;61.07;98492.69;5034493;28;19921;-87
2020/12/26 11:04:20;;;;;;;;;;;;;;;4.27;61.43;98492.91;5040185;28;20377;-87
2020/12/26 11:06:49;;;;;;;;;;;;;;;4.65;60.42;98494.16;5019391;28;19914;-86
2020/12/26 11:09:15;;;;;;;;;;;;;;;4.79;60.44;98490.09;5035701;28;19923;-89
2020/12/26 11:11:45;;;;;;;;;;;;;;;4.79;59.68;98481.97;5021558;28;19901;-88
2020/12/26 11:14:10;;;;;;;;;;;;;;;4.54;59.79;98470.69;5039062;28;19924;-86
2020/12/26 11:16:35;;;;;;;;;;;;;;;4.47;60.54;98468.13;5019012;28;19913;-87
2020/12/26 11:19:00;;;;;;;;;;;;;;;4.40;60.72;98474.75;5039853;28;19920;-84
2020/12/26 11:21:25;;;;;;;;;;;;;;;4.28;60.55;98469.38;5040202;28;19919;-87
2020/12/26 11:23:51;;;;;;;;;;;;;;;4.61;60.87;98476.75;5021365;28;19905;-87
2020/12/26 11:26:16;;;;;;;;;;;;;;;4.49;60.28;98475.97;5017485;28;19999;-85
2020/12/26 11:28:41;;;;;;;;;;;;;;;4.20;60.46;98462.47;5038944;28;20407;-84
2020/12/26 11:31:07;;;;;;;;;;;;;;;4.41;60.79;98452.03;5017232;28;19913;-86
2020/12/26 11:33:32;;;;;;;;;;;;;;;4.61;59.98;98458.59;5016963;28;19913;-88
2020/12/26 11:35:57;;;;;;;;;;;;;;;4.09;60.35;98452.50;5015360;28;19906;-84
2020/12/26 11:38:23;;;;;;;;;;;;;;;3.93;60.53;98445.16;5016085;28;19917;-87
2020/12/26 11:40:48;;;;;;;;;;;;;;;3.83;61.54;98442.25;5015076;28;19940;-86
2020/12/26 11:43:13;;;;;;;;;;;;;;;3.87;61.12;98446.13;5033780;28;20385;-86
2020/12/26 11:45:39;;;;;;;;;;;;;;;3.74;61.13;98439.09;5022556;28;19920;-85
2020/12/26 11:48:04;;;;;;;;;;;;;;;3.81;60.81;98436.25;5019416;28;20042;-86
2020/12/26 11:50:29;;;;;;;;;;;;;;;3.61;61.66;98425.00;5038177;28;19917;-86
2020/12/26 11:52:56;;;;;;;;;;;;;;;3.64;61.78;98424.53;5021574;28;19920;-84
2020/12/26 11:55:21;;;;;;;;;;;;;;;3.56;61.44;98412.22;5022488;28;20429;-86